createdAt,value
2018-06-05T00:01:24.979Z,3.63
2018-06-05T00:03:53.088Z,3.43
2018-06-05T00:06:21.550Z,5.13
2018-06-05T00:08:50.012Z,3.90
2018-06-05T00:11:18.493Z,3.33
2018-06-05T00:13:47.419Z,6.87
2018-06-05T00:16:15.885Z,6.00
2018-06-05T00:18:44.363Z,5.43
2018-06-05T00:21:12.829Z,5.50
2018-06-05T00:23:41.267Z,3.57
2018-06-05T00:26:09.785Z,4.10
2018-06-05T00:28:38.238Z,4.90
2018-06-05T00:31:06.832Z,4.63
2018-06-05T00:33:35.361Z,3.60
2018-06-05T00:36:03.789Z,5.27
2018-06-05T00:38:32.286Z,3.50
2018-06-05T00:41:00.713Z,4.43
2018-06-05T00:43:29.146Z,3.73
2018-06-05T00:45:57.569Z,3.97
2018-06-05T00:48:26.053Z,5.13
2018-06-05T00:50:54.517Z,5.13
2018-06-05T00:53:22.937Z,3.53
2018-06-05T00:55:51.527Z,3.60
2018-06-05T00:58:19.958Z,3.70
2018-06-05T01:00:48.985Z,4.90
2018-06-05T01:03:17.437Z,7.07
2018-06-05T01:05:46.460Z,4.90
2018-06-05T01:08:15.042Z,5.03
2018-06-05T01:10:43.529Z,7.00
2018-06-05T01:13:12.068Z,4.53
2018-06-05T01:15:41.091Z,4.10
2018-06-05T01:18:09.524Z,4.40
2018-06-05T01:20:37.992Z,3.70
2018-06-05T01:23:07.166Z,7.80
2018-06-05T01:25:35.625Z,5.80
2018-06-05T01:28:04.744Z,9.53
2018-06-05T01:30:33.239Z,5.20
2018-06-05T01:33:01.701Z,4.73
2018-06-05T01:35:30.185Z,4.17
2018-06-05T01:37:58.725Z,4.70
2018-06-05T01:40:27.220Z,4.43
2018-06-05T01:42:55.697Z,4.93
2018-06-05T01:45:24.144Z,4.57
2018-06-05T01:47:52.628Z,4.83
2018-06-05T01:50:21.126Z,8.37
2018-06-05T01:52:49.624Z,6.07
2018-06-05T01:55:18.204Z,9.17
2018-06-05T01:57:46.629Z,6.60
2018-06-05T02:00:15.116Z,5.17
2018-06-05T02:02:43.568Z,3.97
2018-06-05T02:05:12.078Z,8.90
2018-06-05T02:07:40.509Z,7.30
2018-06-05T02:10:08.950Z,5.20
2018-06-05T02:12:37.434Z,4.23
2018-06-05T02:15:05.897Z,4.63
2018-06-05T02:17:34.386Z,4.87
2018-06-05T02:20:02.810Z,6.47
2018-06-05T02:22:31.229Z,5.30
2018-06-05T02:24:59.760Z,6.80
2018-06-05T02:27:28.276Z,4.60
2018-06-05T02:29:56.756Z,4.77
2018-06-05T02:32:25.235Z,6.30
2018-06-05T02:34:53.767Z,4.87
2018-06-05T02:37:22.232Z,4.83
2018-06-05T02:39:50.725Z,4.37
2018-06-05T02:42:18.848Z,4.23
2018-06-05T02:44:47.307Z,4.23
2018-06-05T02:47:15.737Z,3.40
2018-06-05T02:49:44.338Z,4.43
2018-06-05T02:52:13.449Z,4.93
2018-06-05T02:54:41.899Z,5.73
2018-06-05T02:57:10.344Z,5.07
2018-06-05T02:59:38.844Z,4.87
2018-06-05T03:02:07.671Z,5.23
2018-06-05T03:04:36.137Z,3.97
2018-06-05T03:07:05.217Z,7.27
2018-06-05T03:09:33.716Z,5.77
2018-06-05T03:12:02.149Z,5.57
2018-06-05T03:14:30.789Z,5.63
2018-06-05T03:16:59.234Z,5.40
2018-06-05T03:19:27.713Z,4.40
2018-06-05T03:21:56.180Z,4.67
2018-06-05T03:24:24.683Z,3.43
2018-06-05T03:26:53.262Z,4.03
2018-06-05T03:29:21.784Z,5.83
2018-06-05T03:31:49.907Z,5.93
2018-06-05T03:34:18.390Z,7.43
2018-06-05T03:36:46.979Z,6.70
2018-06-05T03:39:15.548Z,4.83
2018-06-05T03:41:44.118Z,4.67
2018-06-05T03:44:12.826Z,4.17
2018-06-05T03:46:41.363Z,3.70
2018-06-05T03:49:09.862Z,4.40
2018-06-05T03:51:38.357Z,5.30
2018-06-05T03:54:06.938Z,3.90
2018-06-05T03:56:35.665Z,4.83
2018-06-05T03:59:04.972Z,4.97
2018-06-05T04:01:33.486Z,3.90
2018-06-05T04:04:01.973Z,4.23
2018-06-05T04:06:30.889Z,7.50
2018-06-05T04:08:59.545Z,6.63
2018-06-05T04:11:28.092Z,5.43
2018-06-05T04:13:56.638Z,5.10
2018-06-05T04:16:26.212Z,4.57
2018-06-05T04:18:54.938Z,6.77
2018-06-05T04:21:23.602Z,4.67
2018-06-05T04:23:53.009Z,5.47
2018-06-05T04:26:21.657Z,6.10
2018-06-05T04:28:50.311Z,9.17
2018-06-05T04:31:18.899Z,5.90
2018-06-05T04:33:47.473Z,4.93
2018-06-05T04:36:16.215Z,4.47
2018-06-05T04:38:44.708Z,4.90
2018-06-05T04:41:14.083Z,4.33
2018-06-05T04:43:42.538Z,5.57
2018-06-05T04:46:10.949Z,6.70
2018-06-05T04:48:39.555Z,7.13
2018-06-05T04:51:08.070Z,5.63
2018-06-05T04:53:36.654Z,8.57
2018-06-05T04:56:05.357Z,6.20
2018-06-05T04:58:33.852Z,8.83
2018-06-05T05:01:02.676Z,6.07
2018-06-05T05:03:31.370Z,6.20
2018-06-05T05:05:59.914Z,6.20
2018-06-05T05:08:28.412Z,7.63
2018-06-05T05:10:58.157Z,11.13
2018-06-05T05:13:26.718Z,8.57
2018-06-05T05:15:55.288Z,10.70
2018-06-05T05:18:23.874Z,7.63
2018-06-05T05:20:52.562Z,8.07
2018-06-05T05:23:21.095Z,6.10
2018-06-05T05:25:49.608Z,6.90
2018-06-05T05:28:18.202Z,9.63
2018-06-05T05:30:47.061Z,13.80
2018-06-05T05:33:15.448Z,8.13
2018-06-05T05:35:43.885Z,8.83
2018-06-05T05:38:12.569Z,9.93
2018-06-05T05:40:41.000Z,7.00
2018-06-05T05:43:10.300Z,7.30
2018-06-05T05:45:38.734Z,7.10
2018-06-05T05:48:07.152Z,10.43
2018-06-05T05:50:36.836Z,7.60
2018-06-05T05:53:05.362Z,6.27
2018-06-05T05:55:34.087Z,6.80
2018-06-05T05:58:02.840Z,5.97
2018-06-05T06:00:31.345Z,11.33
2018-06-05T06:02:59.864Z,13.20
2018-06-05T06:05:28.531Z,11.53
2018-06-05T06:07:56.966Z,10.80
2018-06-05T06:10:25.539Z,12.40
2018-06-05T06:12:54.054Z,12.17
2018-06-05T06:15:22.548Z,11.87
2018-06-05T06:17:51.094Z,7.57
2018-06-05T06:20:19.612Z,10.13
2018-06-05T06:22:48.163Z,6.17
2018-06-05T06:25:20.579Z,11.50
2018-06-05T06:27:50.084Z,12.07
2018-06-05T06:30:18.635Z,12.27
2018-06-05T06:32:47.162Z,11.57
2018-06-05T06:35:15.641Z,11.13
2018-06-05T06:37:44.201Z,11.50
2018-06-05T06:40:12.651Z,10.43
2018-06-05T06:42:41.361Z,10.93
2018-06-05T06:45:09.880Z,8.40
2018-06-05T06:47:38.504Z,9.10
2018-06-05T06:50:06.614Z,6.13
2018-06-05T06:52:35.175Z,6.77
2018-06-05T06:55:03.820Z,10.40
2018-06-05T06:57:32.735Z,11.33
2018-06-05T07:00:01.240Z,11.00
2018-06-05T07:02:29.793Z,11.47
2018-06-05T07:04:58.872Z,10.77
2018-06-05T07:07:27.428Z,7.17
2018-06-05T07:09:56.094Z,10.97
2018-06-05T07:12:24.714Z,11.23
2018-06-05T07:14:53.359Z,11.73
2018-06-05T07:17:21.921Z,10.93
2018-06-05T07:19:50.310Z,8.63
2018-06-05T07:22:19.418Z,5.70
2018-06-05T07:24:47.915Z,11.13
2018-06-05T07:27:16.394Z,10.43
2018-06-05T07:29:45.050Z,10.43
2018-06-05T07:32:13.670Z,8.40
2018-06-05T07:34:42.094Z,9.93
2018-06-05T07:37:10.203Z,6.90
2018-06-05T07:39:38.697Z,7.57
2018-06-05T07:42:07.101Z,10.20
2018-06-05T07:44:35.616Z,9.37
2018-06-05T07:47:04.252Z,10.03
2018-06-05T07:49:33.035Z,6.60
2018-06-05T07:52:02.145Z,10.03
2018-06-05T07:54:30.806Z,10.33
2018-06-05T07:56:59.440Z,9.97
2018-06-05T07:59:27.971Z,9.20
2018-06-05T08:01:56.502Z,9.03
2018-06-05T08:04:25.062Z,9.60
2018-06-05T08:06:53.591Z,10.93
2018-06-05T08:09:22.093Z,10.70
2018-06-05T08:11:50.618Z,9.10
2018-06-05T08:14:19.218Z,9.93
2018-06-05T08:16:47.422Z,11.25
2018-06-05T08:19:15.978Z,9.38
2018-06-05T08:21:44.575Z,9.00
2018-06-05T08:24:13.212Z,9.68
2018-06-05T08:26:49.308Z,10.03
2018-06-05T08:29:19.632Z,9.23
2018-06-05T08:31:48.503Z,10.13
2018-06-05T08:34:17.173Z,9.98
2018-06-05T08:36:45.809Z,10.05
2018-06-05T08:39:14.360Z,8.90
2018-06-05T08:41:42.887Z,9.03
2018-06-05T08:44:11.595Z,9.23
2018-06-05T08:46:40.252Z,9.13
2018-06-05T08:49:08.783Z,8.58
2018-06-05T08:51:37.443Z,10.13
2018-06-05T08:54:06.119Z,8.93
2018-06-05T08:56:34.571Z,8.73
2018-06-05T08:59:03.421Z,8.65
2018-06-05T09:01:31.860Z,6.85
2018-06-05T09:04:00.588Z,9.08
2018-06-05T09:06:29.123Z,8.28
2018-06-05T09:08:57.629Z,10.50
2018-06-05T09:11:26.101Z,8.88
2018-06-05T09:13:54.825Z,7.28
2018-06-05T09:16:23.499Z,8.93
2018-06-05T09:18:52.098Z,9.55
2018-06-05T09:21:20.761Z,9.45
2018-06-05T09:23:49.238Z,8.40
2018-06-05T09:26:17.780Z,8.68
2018-06-05T09:28:52.867Z,8.40
2018-06-05T09:31:21.382Z,9.90
2018-06-05T09:33:49.904Z,9.35
2018-06-05T09:36:18.369Z,8.35
2018-06-05T09:38:46.868Z,9.00
2018-06-05T09:41:15.308Z,6.55
2018-06-05T09:43:44.762Z,7.83
2018-06-05T09:46:13.405Z,8.13
2018-06-05T09:48:42.490Z,9.10
2018-06-05T09:51:12.148Z,8.53
2018-06-05T09:53:41.238Z,7.75
2018-06-05T09:56:09.685Z,7.12
2018-06-05T09:58:38.275Z,8.25
2018-06-05T10:01:06.877Z,7.97
2018-06-05T10:03:35.372Z,8.40
2018-06-05T10:06:03.947Z,8.58
2018-06-05T10:08:32.446Z,7.97
2018-06-05T10:11:00.927Z,7.55
2018-06-05T10:13:29.381Z,7.50
2018-06-05T10:15:57.962Z,8.23
2018-06-05T10:18:26.089Z,7.37
2018-06-05T10:20:54.685Z,8.50
2018-06-05T10:23:23.238Z,8.20
2018-06-05T10:25:51.820Z,6.70
2018-06-05T10:28:20.502Z,7.55
2018-06-05T10:30:49.848Z,7.60
2018-06-05T10:33:18.641Z,6.33
2018-06-05T10:35:47.276Z,7.10
2018-06-05T10:38:15.852Z,7.67
2018-06-05T10:40:44.396Z,7.75
2018-06-05T10:43:12.909Z,7.28
2018-06-05T10:45:41.472Z,6.92
2018-06-05T10:48:10.053Z,7.12
2018-06-05T10:50:45.045Z,7.62
2018-06-05T10:53:14.041Z,7.53
2018-06-05T10:55:42.529Z,5.90
2018-06-05T10:58:11.337Z,7.47
2018-06-05T11:00:39.849Z,7.33
2018-06-05T11:03:08.286Z,7.20
2018-06-05T11:05:36.534Z,5.85
2018-06-05T11:08:05.184Z,6.05
2018-06-05T11:10:34.374Z,6.22
2018-06-05T11:13:02.974Z,6.62
2018-06-05T11:15:31.597Z,5.87
2018-06-05T11:18:00.402Z,7.60
2018-06-05T11:20:29.247Z,6.80
2018-06-05T11:22:57.822Z,6.78
2018-06-05T11:25:26.300Z,5.92
2018-06-05T11:27:54.873Z,6.78
2018-06-05T11:30:23.493Z,7.37
2018-06-05T11:32:52.277Z,7.75
2018-06-05T11:35:21.456Z,6.45
2018-06-05T11:37:50.217Z,6.80
2018-06-05T11:40:18.429Z,7.55
2018-06-05T11:42:47.209Z,6.72
2018-06-05T11:45:15.709Z,6.28
2018-06-05T11:47:44.228Z,6.70
2018-06-05T11:50:12.968Z,6.42
2018-06-05T11:52:41.444Z,6.17
2018-06-05T11:55:09.919Z,5.45
2018-06-05T11:57:38.337Z,6.60
2018-06-05T12:00:06.932Z,6.58
2018-06-05T12:02:35.330Z,6.30
2018-06-05T12:05:03.895Z,6.97
2018-06-05T12:07:32.331Z,8.30
2018-06-05T12:10:00.914Z,8.13
2018-06-05T12:12:29.554Z,8.70
2018-06-05T12:14:58.077Z,8.70
2018-06-05T12:17:26.706Z,8.95
2018-06-05T12:19:55.363Z,8.30
2018-06-05T12:22:23.955Z,7.72
2018-06-05T12:24:52.468Z,6.45
2018-06-05T12:27:21.117Z,7.62
2018-06-05T12:29:49.730Z,7.80
2018-06-05T12:32:18.225Z,7.83
2018-06-05T12:37:21.793Z,7.28
2018-06-05T12:39:50.324Z,7.78
2018-06-05T12:42:18.958Z,6.85
2018-06-05T12:44:47.481Z,7.17
2018-06-05T12:47:15.961Z,6.95
2018-06-05T12:49:44.513Z,5.42
2018-06-05T12:52:13.038Z,4.95
2018-06-05T12:54:41.491Z,6.50
2018-06-05T12:57:09.941Z,7.03
2018-06-05T12:59:38.849Z,5.83
2018-06-05T13:02:07.439Z,6.75
2018-06-05T13:04:36.007Z,5.95
2018-06-05T13:07:04.934Z,6.72
2018-06-05T13:09:33.567Z,7.08
2018-06-05T13:12:02.214Z,7.80
2018-06-05T13:14:30.963Z,7.90
2018-06-05T13:16:59.554Z,8.00
2018-06-05T13:19:28.075Z,7.60
2018-06-05T13:21:56.598Z,7.78
2018-06-05T13:24:25.171Z,7.72
2018-06-05T13:26:57.743Z,8.08
2018-06-05T13:29:26.357Z,8.40
2018-06-05T13:31:54.894Z,7.95
2018-06-05T13:34:23.515Z,8.30
2018-06-05T13:36:52.135Z,7.78
2018-06-05T13:39:20.490Z,7.30
2018-06-05T13:41:49.007Z,6.78
2018-06-05T13:44:17.623Z,8.40
2018-06-05T13:46:46.316Z,7.92
2018-06-05T13:49:14.982Z,7.58
2018-06-05T13:51:43.215Z,8.33
2018-06-05T13:54:12.693Z,7.30
2018-06-05T13:56:41.282Z,8.88
2018-06-05T13:59:09.948Z,8.28
2018-06-05T14:01:38.417Z,8.28
2018-06-05T14:04:07.068Z,7.85
2018-06-05T14:06:35.605Z,8.73
2018-06-05T14:09:06.252Z,8.83
2018-06-05T14:11:34.844Z,8.65
2018-06-05T14:14:03.780Z,7.62
2018-06-05T14:16:32.219Z,8.33
2018-06-05T14:19:00.870Z,7.97
2018-06-05T14:21:29.403Z,8.10
2018-06-05T14:23:57.938Z,8.10
2018-06-05T14:26:26.606Z,8.23
2018-06-05T14:28:55.246Z,7.67
2018-06-05T14:31:23.793Z,8.60
2018-06-05T14:33:52.523Z,8.60
2018-06-05T14:36:21.189Z,8.13
2018-06-05T14:38:49.650Z,8.60
2018-06-05T14:41:18.458Z,8.58
2018-06-05T14:43:46.903Z,9.58
2018-06-05T14:46:15.441Z,10.10
2018-06-05T14:48:43.705Z,10.23
2018-06-05T14:51:12.344Z,9.68
2018-06-05T14:53:41.110Z,8.93
2018-06-05T14:56:09.560Z,8.23
2018-06-05T14:58:38.094Z,9.05
2018-06-05T15:01:06.666Z,8.35
2018-06-05T15:03:35.265Z,9.03
2018-06-05T15:06:03.842Z,8.68
2018-06-05T15:08:32.450Z,8.98
2018-06-05T15:11:01.037Z,8.10
2018-06-05T15:13:30.200Z,8.15
2018-06-05T15:15:58.785Z,8.63
2018-06-05T15:18:27.219Z,8.23
2018-06-05T15:20:55.770Z,8.28
2018-06-05T15:23:24.472Z,8.25
2018-06-05T15:25:52.931Z,8.43
2018-06-05T15:28:21.523Z,8.35
2018-06-05T15:30:50.538Z,9.93
2018-06-05T15:33:19.560Z,24.02
2018-06-05T15:35:48.108Z,27.98
2018-06-05T15:38:16.710Z,24.92
2018-06-05T15:40:45.354Z,15.98
2018-06-05T15:43:13.950Z,10.13
2018-06-05T15:45:42.533Z,10.63
2018-06-05T15:48:11.009Z,9.08
2018-06-05T15:50:40.120Z,8.38
2018-06-05T15:53:08.723Z,8.53
2018-06-05T15:55:37.294Z,7.83
2018-06-05T15:58:05.810Z,8.88
2018-06-05T16:00:44.375Z,8.83
2018-06-05T16:03:12.931Z,8.25
2018-06-05T16:05:42.409Z,8.45
2018-06-05T16:08:11.049Z,8.50
2018-06-05T16:10:39.739Z,7.85
2018-06-05T16:13:08.520Z,7.97
2018-06-05T16:16:16.850Z,8.60
2018-06-05T16:18:45.611Z,8.10
2018-06-05T16:21:14.118Z,6.87
2018-06-05T16:23:42.813Z,8.68
2018-06-05T16:26:11.533Z,9.80
2018-06-05T16:28:40.275Z,8.45
2018-06-05T16:31:08.850Z,8.08
2018-06-05T16:33:37.407Z,8.58
2018-06-05T16:36:06.077Z,8.28
2018-06-05T16:38:34.930Z,8.58
2018-06-05T16:41:03.614Z,8.63
2018-06-05T16:43:32.194Z,8.90
2018-06-05T16:46:00.856Z,8.58
2018-06-05T16:48:29.435Z,9.00
2018-06-05T16:50:57.964Z,8.43
2018-06-05T16:53:26.718Z,9.43
2018-06-05T16:55:55.235Z,9.23
2018-06-05T16:58:23.955Z,9.05
2018-06-05T17:00:52.490Z,8.75
2018-06-05T17:03:20.941Z,8.58
2018-06-05T17:05:50.134Z,8.70
2018-06-05T17:08:18.947Z,8.73
2018-06-05T17:10:47.652Z,8.43
2018-06-05T17:13:16.099Z,8.10
2018-06-05T17:15:44.756Z,7.15
2018-06-05T17:18:13.188Z,8.78
2018-06-05T17:20:41.940Z,8.08
2018-06-05T17:23:10.586Z,8.70
2018-06-05T17:25:39.779Z,9.20
2018-06-05T17:28:08.467Z,8.55
2018-06-05T17:30:37.003Z,7.97
2018-06-05T17:33:05.766Z,8.18
2018-06-05T17:35:34.226Z,8.53
2018-06-05T17:38:02.796Z,7.28
2018-06-05T17:40:31.412Z,9.00
2018-06-05T17:42:59.913Z,8.43
2018-06-05T17:45:28.583Z,7.87
2018-06-05T17:47:57.095Z,9.05
2018-06-05T17:50:25.714Z,8.50
2018-06-05T17:52:54.258Z,8.65
2018-06-05T17:55:22.742Z,7.80
2018-06-05T17:57:51.400Z,8.55
2018-06-05T18:00:19.923Z,8.20
2018-06-05T18:02:48.402Z,7.30
2018-06-05T18:05:17.089Z,8.25
2018-06-05T18:07:45.639Z,8.80
2018-06-05T18:10:14.373Z,8.38
2018-06-05T18:12:43.580Z,9.03
2018-06-05T18:15:12.549Z,8.90
2018-06-05T18:17:41.833Z,8.63
2018-06-05T18:20:10.473Z,8.65
2018-06-05T18:22:39.103Z,8.55
2018-06-05T18:25:07.721Z,9.08
2018-06-05T18:27:36.179Z,9.95
2018-06-05T18:30:04.906Z,8.70
2018-06-05T18:32:33.049Z,7.83
2018-06-05T18:35:01.578Z,9.60
2018-06-05T18:37:30.160Z,9.23
2018-06-05T18:39:58.665Z,9.20
2018-06-05T18:42:27.247Z,8.78
2018-06-05T18:44:55.780Z,9.08
2018-06-05T18:47:24.232Z,9.48
2018-06-05T18:49:52.806Z,8.90
2018-06-05T18:52:21.286Z,8.95
2018-06-05T18:54:49.861Z,8.80
2018-06-05T18:57:18.428Z,9.58
2018-06-05T18:59:46.995Z,9.18
2018-06-05T19:02:15.560Z,8.73
2018-06-05T19:04:44.286Z,9.08
2018-06-05T19:07:12.790Z,8.65
2018-06-05T19:09:41.602Z,9.65
2018-06-05T19:12:10.294Z,10.13
2018-06-05T19:14:38.938Z,8.23
2018-06-05T19:17:07.500Z,10.40
2018-06-05T19:19:36.108Z,9.90
2018-06-05T19:22:04.690Z,9.83
2018-06-05T19:24:33.298Z,9.58
2018-06-05T19:27:01.746Z,10.05
2018-06-05T19:29:30.287Z,7.17
2018-06-05T19:31:58.867Z,10.05
2018-06-05T19:34:27.422Z,10.30
2018-06-05T19:36:56.134Z,7.58
2018-06-05T19:39:24.706Z,10.72
2018-06-05T19:41:53.277Z,8.03
2018-06-05T19:44:21.863Z,6.80
2018-06-05T19:46:50.320Z,5.97
2018-06-05T19:49:18.909Z,8.77
2018-06-05T19:51:47.530Z,5.70
2018-06-05T19:54:16.066Z,9.93
2018-06-05T19:56:44.656Z,9.07
2018-06-05T19:59:13.394Z,9.27
2018-06-05T20:01:41.922Z,8.20
2018-06-05T20:04:10.552Z,9.43
2018-06-05T20:06:39.095Z,6.23
2018-06-05T20:09:08.401Z,6.37
2018-06-05T20:11:36.870Z,6.47
2018-06-05T20:14:05.471Z,6.83
2018-06-05T20:16:34.016Z,8.50
2018-06-05T20:19:02.619Z,6.30
2018-06-05T20:21:31.309Z,4.80
2018-06-05T20:23:59.769Z,4.83
2018-06-05T20:26:28.285Z,5.23
2018-06-05T20:28:56.729Z,5.13
2018-06-05T20:31:25.260Z,4.47
2018-06-05T20:33:53.852Z,3.93
2018-06-05T20:36:22.539Z,3.63
2018-06-05T20:38:51.149Z,4.10
2018-06-05T20:41:19.628Z,4.60
2018-06-05T20:43:48.163Z,4.10
2018-06-05T20:46:16.681Z,6.63
2018-06-05T20:48:45.357Z,5.43
2018-06-05T20:51:13.830Z,7.60
2018-06-05T20:53:42.572Z,5.40
2018-06-05T20:56:11.187Z,7.70
2018-06-05T20:58:41.185Z,9.27
2018-06-05T21:01:09.873Z,9.53
2018-06-05T21:03:38.471Z,7.60
2018-06-05T21:06:07.135Z,10.73
2018-06-05T21:08:35.830Z,9.27
2018-06-05T21:11:04.418Z,11.20
2018-06-05T21:13:33.140Z,12.50
2018-06-05T21:16:02.512Z,13.17
2018-06-05T21:18:31.067Z,20.67
2018-06-05T21:20:59.583Z,19.83
2018-06-05T21:23:28.014Z,11.37
2018-06-05T21:25:56.456Z,10.47
2018-06-05T21:28:25.087Z,10.40
2018-06-05T21:30:53.578Z,11.20
2018-06-05T21:33:22.169Z,11.90
2018-06-05T21:35:50.864Z,11.80
2018-06-05T21:38:19.552Z,12.13
2018-06-05T21:40:48.059Z,11.57
2018-06-05T21:43:16.622Z,10.70
2018-06-05T21:45:45.107Z,11.83
2018-06-05T21:48:15.408Z,12.23
2018-06-05T21:50:44.358Z,12.00
2018-06-05T21:53:13.193Z,12.80
2018-06-05T21:55:41.807Z,13.47
2018-06-05T21:58:10.217Z,8.80
2018-06-05T22:00:40.832Z,7.23
2018-06-05T22:03:09.479Z,6.47
2018-06-05T22:05:40.900Z,10.13
2018-06-05T22:08:14.231Z,10.60
2018-06-05T22:10:42.678Z,10.87
2018-06-05T22:13:13.604Z,7.87
2018-06-05T22:15:42.256Z,10.20
2018-06-05T22:18:10.907Z,9.80
2018-06-05T22:20:39.510Z,10.30
2018-06-05T22:23:08.002Z,13.63
2018-06-05T22:25:36.477Z,11.73
2018-06-05T22:28:04.878Z,7.20
2018-06-05T22:30:33.345Z,9.57
2018-06-05T22:33:01.868Z,6.83
2018-06-05T22:35:31.471Z,9.47
2018-06-05T22:38:01.259Z,6.00
2018-06-05T22:40:29.894Z,8.30
2018-06-05T22:42:58.769Z,7.53
2018-06-05T22:45:27.292Z,13.83
2018-06-05T22:47:55.810Z,9.07
2018-06-05T22:50:24.491Z,10.83
2018-06-05T22:53:00.350Z,10.90
2018-06-05T22:55:29.095Z,10.87
2018-06-05T22:57:57.854Z,12.63
2018-06-05T23:00:32.729Z,12.80
2018-06-05T23:03:01.295Z,13.53
2018-06-05T23:05:29.763Z,8.53
2018-06-05T23:07:58.458Z,8.37
2018-06-05T23:10:27.052Z,6.83
2018-06-05T23:12:55.706Z,6.43
2018-06-05T23:15:24.284Z,5.90
2018-06-05T23:17:52.785Z,6.03
2018-06-05T23:20:21.197Z,12.07
2018-06-05T23:22:49.989Z,14.83
2018-06-05T23:25:18.594Z,11.00
2018-06-05T23:27:47.028Z,10.50
2018-06-05T23:30:15.564Z,13.97
2018-06-05T23:32:44.188Z,13.17
2018-06-05T23:35:12.640Z,12.20
2018-06-05T23:37:41.100Z,11.03
2018-06-05T23:40:09.687Z,8.67
2018-06-05T23:42:38.137Z,10.93
2018-06-05T23:45:06.657Z,12.00
2018-06-05T23:47:35.206Z,9.37
2018-06-05T23:50:03.748Z,8.93
2018-06-05T23:52:32.375Z,9.33
2018-06-05T23:55:01.453Z,9.33
2018-06-05T23:57:29.875Z,7.00
2018-06-05T23:59:58.326Z,9.00
